Portada
METAR-TAF:

METAR-TAF

Aeropuertos :

Aeropuerto Internacional Sir Seewoosagur Ramgoolam

Mauricio, Mauricio

latitud: 20-26S, longitud: 057-40E, altitud: 55 m

Observación

El informe se hizo hace 1 hora y 4 minutos, a las 09:00 UTC
Viento 10 kt del este
Temperatura 28°C
Humedad 62%
Presión 1017 hPa
Visibilidad 10 km o más
Nubes dispersas a una altura de 1800 ft

METAR: FIMP 190900Z 10010KT 9999 SCT018 28/20 Q1017

Hora: 14:04 (10:04 UTC)

Pronóstico

El informe se hizo hace 5 horas y 4 minutos, a las 05:00 UTC
Pronóstico válido del 19 a las 06 UTC al 20 a las 12 UTC
Viento 10 kt del este con ráfagas de 25 kt
Visibilidad 10 km o más
Nubes dispersas a una altura de 1700 ft
Evolucionando progresivamente
del 19 a las 18 UTC al 19 a las 20 UTC
Viento 3 kt del norte-noroeste
Evolucionando progresivamente
del 20 a las 04 UTC al 20 a las 06 UTC
Viento 8 kt del este

TAF: FIMP 190500Z 1906/2012 09010G25KT 9999 SCT017 BECMG 1918/1920 33003KT BECMG 2004/2006 09008KT

Observaciones y pronósticos meteorológicos de más de 4000 aeropuertos (mensajes METAR y TAF).

Los puntos amarillos y rojos representan las estaciones disponibles.

Ponga el ratón en el punto deseado para ver el nombre de la estación.

Haga clic para ver las observaciones y los pronósticos meteorológicos.

Para cambiar el mapa : haga clic en los botones verdes con una cruz de color negro para hacer un zoom, en el botón verde con un guión para alejar o en las flechas verdes para mapas adyacentes.


METAR-TAF: